Orange Grove, Texas
Current Conditions -  °F | °C
As of 2:56 AM on Monday 22 Dec 2014 (Local Time) from KNOG Reporting Station
Overcast Overcast  
Wind Chill: 60°   Ceiling: 200
Heat Index: 60°   Visibility: 10mi
Dew Point: 59°   Wind: 12mph
Humidity: 96%   Direction: 210°SSW
Pressure: 29.81"   Gusts: NA
Location:  27.96°N, 97.94°W
Report Text: KNOG 220856Z AUTO 21010KT 10SM OVC002 16/15 A2981 RMK AO2 SLP077 T01560150 56012 $
Loading
Personal Weather Stations






























Interactive Weather Map New forecast layout! Learn more

10-Day Weather Forecast

Advertisements
Track Severe Weather on mobile